createdAt,value
2023-05-14T00:00:36.309Z,68.87
2023-05-14T00:03:24.438Z,69.04
2023-05-14T00:05:52.457Z,69.71
2023-05-14T00:08:20.723Z,69.88
2023-05-14T00:10:48.703Z,68.62
2023-05-14T00:13:16.898Z,70.57
2023-05-14T00:15:45.342Z,70.98
2023-05-14T00:18:13.521Z,70.83
2023-05-14T00:20:41.718Z,70.59
2023-05-14T00:23:10.172Z,71.02
2023-05-14T00:25:38.818Z,70.85
2023-05-14T00:28:07.858Z,71.14
2023-05-14T00:30:36.274Z,71.42
2023-05-14T00:33:04.345Z,70.67
2023-05-14T00:35:37.163Z,72.11
2023-05-14T00:38:05.390Z,72.17
2023-05-14T00:40:34.292Z,71.81
2023-05-14T00:43:03.772Z,71.65
2023-05-14T00:45:31.817Z,72.02
2023-05-14T00:48:00.062Z,72.28
2023-05-14T00:50:28.500Z,72.27
2023-05-14T00:52:56.767Z,72.50
2023-05-14T00:55:25.835Z,72.47
2023-05-14T00:57:58.178Z,72.39
2023-05-14T01:00:26.355Z,72.46
2023-05-14T01:02:54.400Z,72.56
2023-05-14T01:05:26.432Z,72.53
2023-05-14T01:08:16.667Z,73.41
2023-05-14T01:10:52.401Z,73.74
2023-05-14T01:13:37.585Z,73.23
2023-05-14T01:16:12.529Z,73.85
2023-05-14T01:18:43.447Z,73.76
2023-05-14T01:21:34.950Z,73.35
2023-05-14T01:24:03.188Z,73.28
2023-05-14T01:26:31.704Z,73.09
2023-05-14T01:29:06.760Z,74.36
2023-05-14T01:31:39.135Z,74.81
2023-05-14T01:34:10.059Z,74.93
2023-05-14T01:36:40.415Z,74.41
2023-05-14T01:39:10.858Z,74.34
2023-05-14T01:41:40.523Z,74.57
2023-05-14T01:44:11.969Z,74.29
2023-05-14T01:46:40.235Z,74.23
2023-05-14T01:49:08.563Z,74.47
2023-05-14T01:51:37.837Z,74.54
2023-05-14T01:54:06.214Z,74.81
2023-05-14T01:56:34.617Z,75.11
2023-05-14T01:59:02.598Z,75.73
2023-05-14T02:01:31.814Z,75.70
2023-05-14T02:04:01.202Z,75.79
2023-05-14T02:06:29.368Z,75.66
2023-05-14T02:08:57.615Z,75.83
2023-05-14T02:11:26.406Z,75.59
2023-05-14T02:13:56.031Z,75.48
2023-05-14T02:16:24.178Z,75.20
2023-05-14T02:18:53.024Z,75.81
2023-05-14T02:21:26.976Z,75.50
2023-05-14T02:23:57.807Z,76.03
2023-05-14T02:26:25.885Z,75.82
2023-05-14T02:28:53.974Z,75.95
2023-05-14T02:31:22.071Z,75.68
2023-05-14T02:33:50.425Z,75.99
2023-05-14T02:36:18.676Z,75.76
2023-05-14T02:38:46.719Z,75.96
2023-05-14T02:41:14.958Z,75.97
2023-05-14T02:43:42.907Z,76.68
2023-05-14T02:46:11.101Z,78.92
2023-05-14T02:48:39.084Z,78.41
2023-05-14T02:51:08.418Z,78.29
2023-05-14T02:53:36.618Z,77.60
2023-05-14T02:56:05.033Z,78.65
2023-05-14T02:58:33.184Z,80.04
2023-05-14T03:01:01.326Z,80.46
2023-05-14T03:03:31.416Z,80.74
2023-05-14T03:05:59.839Z,81.26
2023-05-14T03:08:27.973Z,81.18
2023-05-14T03:10:56.102Z,80.69
2023-05-14T03:13:24.175Z,80.15
2023-05-14T03:15:55.080Z,79.96
2023-05-14T03:18:24.759Z,79.72
2023-05-14T03:20:52.889Z,79.65
2023-05-14T03:23:21.072Z,79.12
2023-05-14T03:25:49.100Z,78.72
2023-05-14T03:28:17.094Z,78.81
2023-05-14T03:30:45.133Z,78.34
2023-05-14T03:33:13.764Z,77.67
2023-05-14T03:35:41.924Z,77.47
2023-05-14T03:38:10.206Z,77.41
2023-05-14T03:40:38.298Z,77.34
2023-05-14T03:43:06.458Z,77.75
2023-05-14T03:45:35.443Z,77.93
2023-05-14T03:48:03.811Z,78.46
2023-05-14T03:50:34.352Z,78.06
2023-05-14T03:53:02.392Z,78.45
2023-05-14T03:55:31.460Z,78.35
2023-05-14T03:57:59.440Z,78.46
2023-05-14T04:05:12.592Z,78.49
2023-05-14T04:07:40.860Z,78.51
2023-05-14T04:10:09.298Z,78.47
2023-05-14T04:12:37.492Z,78.29
2023-05-14T04:15:06.710Z,78.53
2023-05-14T04:17:35.163Z,78.96
2023-05-14T04:20:04.563Z,78.98
2023-05-14T04:22:32.839Z,79.18
2023-05-14T04:25:00.806Z,79.49
2023-05-14T04:27:29.019Z,79.60
2023-05-14T04:29:57.009Z,79.05
2023-05-14T04:34:37.658Z,79.85
2023-05-14T04:37:05.612Z,80.19
2023-05-14T04:39:33.752Z,79.74
2023-05-14T04:42:01.882Z,76.89
2023-05-14T04:44:29.806Z,74.62
2023-05-14T04:46:57.779Z,71.58
2023-05-14T04:49:26.193Z,64.53
2023-05-14T04:51:54.188Z,65.42
2023-05-14T04:54:22.193Z,60.77
2023-05-14T04:56:50.405Z,62.40
2023-05-14T04:59:18.257Z,57.73
2023-05-14T05:01:46.700Z,59.92
2023-05-14T05:04:14.717Z,57.43
2023-05-14T05:06:42.748Z,54.80
2023-05-14T05:09:11.800Z,54.11
2023-05-14T05:11:40.085Z,53.14
2023-05-14T05:14:08.043Z,45.57
2023-05-14T05:16:36.270Z,51.14
2023-05-14T05:19:04.299Z,50.12
2023-05-14T05:21:32.332Z,46.41
2023-05-14T05:24:00.260Z,40.29
2023-05-14T05:26:28.452Z,42.02
2023-05-14T05:28:56.441Z,43.23
2023-05-14T05:31:25.076Z,41.47
2023-05-14T05:33:53.200Z,42.41
2023-05-14T05:36:21.273Z,42.09
2023-05-14T05:38:49.242Z,41.83
2023-05-14T05:41:17.409Z,41.75
2023-05-14T05:43:45.714Z,41.75
2023-05-14T05:46:14.750Z,40.10
2023-05-14T05:48:43.794Z,40.11
2023-05-14T05:51:12.098Z,40.15
2023-05-14T05:53:40.399Z,40.19
2023-05-14T05:56:08.249Z,40.55
2023-05-14T05:58:37.186Z,40.33
2023-05-14T06:01:05.214Z,41.04
2023-05-14T06:03:33.552Z,39.92
2023-05-14T06:06:01.416Z,39.09
2023-05-14T06:08:29.373Z,38.16
2023-05-14T06:10:57.660Z,39.14
2023-05-14T06:13:26.275Z,37.82
2023-05-14T06:15:54.689Z,37.91
2023-05-14T06:18:22.596Z,37.09
2023-05-14T06:20:50.594Z,36.69
2023-05-14T06:23:18.581Z,36.87
2023-05-14T06:25:47.897Z,36.83
2023-05-14T06:28:17.535Z,37.21
2023-05-14T06:30:45.499Z,36.40
2023-05-14T06:33:15.091Z,35.82
2023-05-14T06:35:44.591Z,35.57
2023-05-14T06:38:12.503Z,35.42
2023-05-14T06:40:40.403Z,35.32
2023-05-14T06:43:08.537Z,35.79
2023-05-14T06:45:36.643Z,35.51
2023-05-14T06:48:04.816Z,35.58
2023-05-14T06:50:32.735Z,35.16
2023-05-14T06:53:00.947Z,34.84
2023-05-14T06:55:28.843Z,34.39
2023-05-14T06:57:56.720Z,34.28
2023-05-14T07:00:25.119Z,34.51
2023-05-14T07:02:53.431Z,34.31
2023-05-14T07:05:21.660Z,34.58
2023-05-14T07:07:50.214Z,34.71
2023-05-14T07:10:18.137Z,33.92
2023-05-14T07:12:46.101Z,33.20
2023-05-14T07:15:14.766Z,33.20
2023-05-14T07:17:42.985Z,32.77
2023-05-14T07:20:11.572Z,33.02
2023-05-14T07:22:39.622Z,32.70
2023-05-14T07:25:08.003Z,31.45
2023-05-14T07:27:36.047Z,31.47
2023-05-14T07:30:04.295Z,31.74
2023-05-14T07:32:32.154Z,31.66
2023-05-14T07:35:00.235Z,31.70
2023-05-14T07:37:28.136Z,31.12
2023-05-14T07:39:56.395Z,31.02
2023-05-14T07:42:35.159Z,31.15
2023-05-14T07:45:04.366Z,30.20
2023-05-14T07:47:32.485Z,29.72
2023-05-14T07:50:00.601Z,29.17
2023-05-14T07:52:28.799Z,29.05
2023-05-14T07:54:56.724Z,29.05
2023-05-14T07:57:26.470Z,29.37
2023-05-14T07:59:54.334Z,29.26
2023-05-14T08:02:22.605Z,29.25
2023-05-14T08:04:50.594Z,29.65
2023-05-14T08:07:18.834Z,29.37
2023-05-14T08:09:47.183Z,29.52
2023-05-14T08:12:16.065Z,29.49
2023-05-14T08:14:44.179Z,29.75
2023-05-14T08:17:12.452Z,30.64
2023-05-14T08:19:40.692Z,30.83
2023-05-14T08:22:08.708Z,30.81
2023-05-14T08:24:36.592Z,30.33
2023-05-14T08:27:04.752Z,30.51
2023-05-14T08:29:32.904Z,30.29
2023-05-14T08:32:08.390Z,29.87
2023-05-14T08:34:44.130Z,30.76
2023-05-14T08:37:12.443Z,30.48
2023-05-14T08:39:40.813Z,30.72
2023-05-14T08:42:12.314Z,30.71
2023-05-14T08:44:46.715Z,30.64
2023-05-14T08:47:15.943Z,30.50
2023-05-14T08:49:46.600Z,31.16
2023-05-14T08:52:16.402Z,31.56
2023-05-14T08:54:45.486Z,31.55
2023-05-14T08:57:14.872Z,31.64
2023-05-14T08:59:43.728Z,32.27
2023-05-14T09:02:14.553Z,32.04
2023-05-14T09:04:42.697Z,31.47
2023-05-14T09:07:11.628Z,31.61
2023-05-14T09:09:40.487Z,31.33
2023-05-14T09:12:08.828Z,31.38
2023-05-14T09:14:36.930Z,31.56
2023-05-14T09:17:05.410Z,31.01
2023-05-14T09:19:33.425Z,31.27
2023-05-14T09:22:01.326Z,30.94
2023-05-14T09:24:29.684Z,30.64
2023-05-14T09:26:58.120Z,30.77
2023-05-14T09:29:27.788Z,32.06
2023-05-14T09:31:56.984Z,32.20
2023-05-14T09:34:26.261Z,32.14
2023-05-14T09:36:57.360Z,31.49
2023-05-14T09:39:26.479Z,31.23
2023-05-14T09:41:54.957Z,31.17
2023-05-14T09:44:23.452Z,31.08
2023-05-14T09:46:52.162Z,30.57
2023-05-14T09:49:22.071Z,30.70
2023-05-14T09:51:51.201Z,30.70
2023-05-14T09:54:19.282Z,30.57
2023-05-14T09:56:47.170Z,31.52
2023-05-14T09:59:15.253Z,31.30
2023-05-14T10:01:44.423Z,30.54
2023-05-14T10:04:12.948Z,31.15
2023-05-14T10:06:43.432Z,31.09
2023-05-14T10:09:13.284Z,31.02
2023-05-14T10:11:45.371Z,31.39
2023-05-14T10:14:18.554Z,31.48
2023-05-14T10:16:50.511Z,31.64
2023-05-14T10:19:20.968Z,30.54
2023-05-14T10:21:53.241Z,30.23
2023-05-14T10:24:22.090Z,30.72
2023-05-14T10:26:50.124Z,31.04
2023-05-14T10:29:18.090Z,31.04
2023-05-14T10:31:47.405Z,31.64
2023-05-14T10:34:31.505Z,31.35
2023-05-14T10:37:00.902Z,30.83
2023-05-14T10:39:45.225Z,30.10
2023-05-14T10:42:23.606Z,30.75
2023-05-14T10:45:02.040Z,30.40
2023-05-14T10:47:30.503Z,30.50
2023-05-14T10:49:59.344Z,30.50
2023-05-14T10:52:27.426Z,30.66
2023-05-14T10:54:57.482Z,30.76
2023-05-14T10:57:27.682Z,30.35
2023-05-14T10:59:56.544Z,29.79
2023-05-14T11:04:50.717Z,28.44
2023-05-14T11:07:24.334Z,29.57
2023-05-14T11:09:53.237Z,30.25
2023-05-14T11:12:21.401Z,29.74
2023-05-14T11:14:50.360Z,29.80
2023-05-14T11:17:18.438Z,29.60
2023-05-14T11:19:46.543Z,29.11
2023-05-14T11:22:14.661Z,28.60
2023-05-14T11:24:42.837Z,29.26
2023-05-14T11:27:10.949Z,28.94
2023-05-14T11:29:39.226Z,29.37
2023-05-14T11:32:07.448Z,28.76
2023-05-14T11:34:37.327Z,29.14
2023-05-14T11:37:06.020Z,28.39
2023-05-14T11:39:34.197Z,28.69
2023-05-14T11:42:06.056Z,29.29
2023-05-14T11:44:33.989Z,29.93
2023-05-14T11:47:02.146Z,30.16
2023-05-14T11:49:30.308Z,30.58
2023-05-14T11:52:23.254Z,30.08
2023-05-14T11:54:51.513Z,30.82
2023-05-14T11:57:21.117Z,29.38
2023-05-14T11:59:49.891Z,30.40
2023-05-14T12:02:19.846Z,30.78
2023-05-14T12:04:50.850Z,30.06
2023-05-14T12:07:18.858Z,30.05
2023-05-14T12:09:50.856Z,30.80
2023-05-14T12:12:20.053Z,30.02
2023-05-14T12:14:49.304Z,30.73
2023-05-14T12:17:18.798Z,30.94
2023-05-14T12:19:48.270Z,31.57
2023-05-14T12:22:17.995Z,31.11
2023-05-14T12:24:59.007Z,30.64
2023-05-14T12:27:27.993Z,30.49
2023-05-14T12:30:20.124Z,30.71
2023-05-14T12:32:51.990Z,31.00
2023-05-14T12:35:21.492Z,31.31
2023-05-14T12:37:49.418Z,31.06
2023-05-14T12:40:17.364Z,31.27
2023-05-14T12:42:45.879Z,30.44
2023-05-14T12:45:14.378Z,30.33
2023-05-14T12:47:42.605Z,30.85
2023-05-14T12:50:10.895Z,29.84
2023-05-14T12:52:40.208Z,29.99
2023-05-14T12:55:09.384Z,30.09
2023-05-14T12:57:39.284Z,30.44
2023-05-14T13:00:08.712Z,30.61
2023-05-14T13:02:43.163Z,30.28
2023-05-14T13:05:12.376Z,31.10
2023-05-14T13:07:41.149Z,30.38
2023-05-14T13:10:09.379Z,30.13
2023-05-14T13:12:37.249Z,29.85
2023-05-14T13:15:06.563Z,30.18
2023-05-14T13:17:34.592Z,29.94
2023-05-14T13:20:02.507Z,30.53
2023-05-14T13:22:30.418Z,30.32
2023-05-14T13:24:59.042Z,30.16
2023-05-14T13:27:27.319Z,30.56
2023-05-14T13:29:55.616Z,30.94
2023-05-14T13:32:23.661Z,31.04
2023-05-14T13:34:51.633Z,30.71
2023-05-14T13:37:19.890Z,31.08
2023-05-14T13:39:49.535Z,30.35
2023-05-14T13:42:19.356Z,30.11
2023-05-14T13:44:47.269Z,30.47
2023-05-14T13:47:15.526Z,30.51
2023-05-14T13:49:43.699Z,30.65
2023-05-14T13:52:11.738Z,30.83
2023-05-14T13:54:39.639Z,30.86
2023-05-14T13:57:07.528Z,30.57
2023-05-14T13:59:35.871Z,30.98
2023-05-14T14:02:04.284Z,30.61
2023-05-14T14:04:32.366Z,30.93
2023-05-14T14:07:00.627Z,30.97
2023-05-14T14:09:28.449Z,30.85
2023-05-14T14:11:56.339Z,31.16
2023-05-14T14:14:24.273Z,31.23
2023-05-14T14:16:52.138Z,30.80
2023-05-14T14:19:20.999Z,30.92
2023-05-14T14:24:22.091Z,31.08
2023-05-14T14:26:50.031Z,31.27
2023-05-14T14:29:17.829Z,31.65
2023-05-14T14:31:45.913Z,30.57
2023-05-14T14:34:13.811Z,30.39
2023-05-14T14:36:41.634Z,29.98
2023-05-14T14:39:09.495Z,29.90
2023-05-14T14:41:37.414Z,30.51
2023-05-14T14:44:05.700Z,30.35
2023-05-14T14:46:34.160Z,30.89
2023-05-14T14:49:02.131Z,30.61
2023-05-14T14:51:30.420Z,30.63
2023-05-14T14:53:58.600Z,31.06
2023-05-14T14:56:26.946Z,31.10
2023-05-14T14:58:54.932Z,30.84
2023-05-14T15:01:23.150Z,31.23
2023-05-14T15:03:51.224Z,31.35
2023-05-14T15:06:19.217Z,31.47
2023-05-14T15:08:47.114Z,32.11
2023-05-14T15:11:15.426Z,31.82
2023-05-14T15:13:43.559Z,31.81
2023-05-14T15:16:12.550Z,32.29
2023-05-14T15:18:40.746Z,32.69
2023-05-14T15:21:08.885Z,32.86
2023-05-14T15:23:36.759Z,33.25
2023-05-14T15:26:04.810Z,33.30
2023-05-14T15:28:32.984Z,33.22
2023-05-14T15:31:02.468Z,33.22
2023-05-14T15:33:30.644Z,33.31
2023-05-14T15:35:58.527Z,33.83
2023-05-14T15:38:26.658Z,34.01
2023-05-14T15:40:54.637Z,33.48
2023-05-14T15:43:22.571Z,33.48
2023-05-14T15:45:50.925Z,33.83
2023-05-14T15:48:18.823Z,34.16
2023-05-14T15:50:49.553Z,34.25
2023-05-14T15:53:17.823Z,34.26
2023-05-14T15:55:48.018Z,34.58
2023-05-14T15:58:16.285Z,34.78
2023-05-14T16:00:44.374Z,35.02
2023-05-14T16:03:12.499Z,35.01
2023-05-14T16:05:42.690Z,34.75
2023-05-14T16:08:10.739Z,35.37
2023-05-14T16:10:38.737Z,34.90
2023-05-14T16:13:06.775Z,34.98
2023-05-14T16:15:34.907Z,34.86
2023-05-14T16:18:03.062Z,34.72
2023-05-14T16:20:31.125Z,34.77
2023-05-14T16:22:59.111Z,35.03
2023-05-14T16:25:27.246Z,34.83
2023-05-14T16:27:55.347Z,34.87
2023-05-14T16:30:23.649Z,34.69
2023-05-14T16:32:52.088Z,34.52
2023-05-14T16:35:20.614Z,34.46
2023-05-14T16:37:49.539Z,34.96
2023-05-14T16:40:19.651Z,34.91
2023-05-14T16:42:49.255Z,34.98
2023-05-14T16:45:17.811Z,35.45
2023-05-14T16:47:45.912Z,35.60
2023-05-14T16:50:13.985Z,35.80
2023-05-14T16:52:42.160Z,35.66
2023-05-14T16:55:10.646Z,35.71
2023-05-14T16:57:38.944Z,35.84
2023-05-14T17:00:09.616Z,36.12
2023-05-14T17:02:38.108Z,36.11
2023-05-14T17:08:01.053Z,36.11
2023-05-14T17:10:30.951Z,36.37
2023-05-14T17:12:59.904Z,36.39
2023-05-14T17:15:46.077Z,36.59
2023-05-14T17:18:14.215Z,36.74
2023-05-14T17:20:42.619Z,36.89
2023-05-14T17:23:10.770Z,36.98
2023-05-14T17:25:39.334Z,37.13
2023-05-14T17:28:07.359Z,37.19
2023-05-14T17:30:35.454Z,37.36
2023-05-14T17:33:03.821Z,37.39
2023-05-14T17:35:35.840Z,37.42
2023-05-14T17:38:03.826Z,37.63
2023-05-14T17:40:31.945Z,37.82
2023-05-14T17:42:59.873Z,37.89
2023-05-14T17:45:32.179Z,38.10
2023-05-14T17:48:04.905Z,38.36
2023-05-14T17:50:33.139Z,38.26
2023-05-14T17:53:01.211Z,38.31
2023-05-14T17:55:29.251Z,38.36
2023-05-14T17:57:57.230Z,38.54
2023-05-14T18:00:25.751Z,38.60
2023-05-14T18:02:53.790Z,38.66
2023-05-14T18:05:22.533Z,38.92
2023-05-14T18:07:51.139Z,38.97
2023-05-14T18:10:19.728Z,39.07
2023-05-14T18:12:48.060Z,39.20
2023-05-14T18:15:16.332Z,39.27
2023-05-14T18:17:44.840Z,39.49
2023-05-14T18:20:13.060Z,39.74
2023-05-14T18:22:41.399Z,39.50
2023-05-14T18:25:10.013Z,40.52
2023-05-14T18:27:44.635Z,40.65
2023-05-14T18:30:14.806Z,40.86
2023-05-14T18:32:44.578Z,41.60
2023-05-14T18:35:14.379Z,41.94
2023-05-14T18:37:42.624Z,42.12
2023-05-14T18:40:11.389Z,42.38
2023-05-14T18:42:39.539Z,42.36
2023-05-14T18:45:08.014Z,42.69
2023-05-14T18:47:36.728Z,42.56
2023-05-14T18:50:05.736Z,42.99
2023-05-14T18:52:34.100Z,43.14
2023-05-14T18:55:02.094Z,43.70
2023-05-14T18:57:32.258Z,44.09
2023-05-14T19:04:52.803Z,45.60
2023-05-14T19:07:21.717Z,45.50
2023-05-14T19:09:51.153Z,45.26
2023-05-14T19:12:19.696Z,45.57
2023-05-14T19:14:47.789Z,46.07
2023-05-14T19:17:18.356Z,46.29
2023-05-14T19:19:47.445Z,46.63
2023-05-14T19:22:15.466Z,47.27
2023-05-14T19:24:43.645Z,47.86
2023-05-14T19:27:16.382Z,48.17
2023-05-14T19:29:44.901Z,48.31
2023-05-14T19:32:12.763Z,48.14
2023-05-14T19:34:41.073Z,48.53
2023-05-14T19:37:10.829Z,48.66
2023-05-14T19:39:39.848Z,48.56
2023-05-14T19:42:07.857Z,48.90
2023-05-14T19:44:35.775Z,49.12
2023-05-14T19:47:03.980Z,49.36
2023-05-14T19:49:32.310Z,49.51
2023-05-14T19:52:00.625Z,50.21
2023-05-14T19:54:28.491Z,50.24
2023-05-14T19:56:57.021Z,49.97
2023-05-14T19:59:26.450Z,50.62
2023-05-14T20:01:55.209Z,50.98
2023-05-14T20:04:23.331Z,51.27
2023-05-14T20:06:51.516Z,51.31
2023-05-14T20:09:20.263Z,51.70
2023-05-14T20:11:48.767Z,52.20
2023-05-14T20:14:16.925Z,52.56
2023-05-14T20:16:45.237Z,52.91
2023-05-14T20:19:14.682Z,53.46
2023-05-14T20:21:42.780Z,53.53
2023-05-14T20:24:10.896Z,53.59
2023-05-14T20:26:38.861Z,53.85
2023-05-14T20:29:07.024Z,53.92
2023-05-14T20:31:35.150Z,53.56
2023-05-14T20:34:03.735Z,54.43
2023-05-14T20:36:32.105Z,54.63
2023-05-14T20:39:00.865Z,54.48
2023-05-14T20:41:29.387Z,54.73
2023-05-14T20:43:57.379Z,54.71
2023-05-14T20:46:26.100Z,54.70
2023-05-14T20:48:55.800Z,54.74
2023-05-14T20:51:24.397Z,54.65
2023-05-14T20:53:54.011Z,54.95
2023-05-14T20:56:22.677Z,54.94
2023-05-14T20:58:50.764Z,55.30
2023-05-14T21:01:19.210Z,55.23
2023-05-14T21:03:47.422Z,55.15
2023-05-14T21:06:16.628Z,55.13
2023-05-14T21:08:44.649Z,55.20
2023-05-14T21:11:14.639Z,55.12
2023-05-14T21:13:44.548Z,55.34
2023-05-14T21:16:12.841Z,55.04
2023-05-14T21:18:40.946Z,54.82
2023-05-14T21:21:09.209Z,54.74
2023-05-14T21:23:37.261Z,54.57
2023-05-14T21:26:05.200Z,54.57
2023-05-14T21:28:33.248Z,54.46
2023-05-14T21:31:01.414Z,54.35
2023-05-14T21:33:29.522Z,54.28
2023-05-14T21:35:57.573Z,54.16
2023-05-14T21:38:25.822Z,54.08
2023-05-14T21:40:53.822Z,53.94
2023-05-14T21:43:22.152Z,53.87
2023-05-14T21:45:50.528Z,53.93
2023-05-14T21:48:18.746Z,53.95
2023-05-14T21:50:47.111Z,53.83
2023-05-14T21:53:15.496Z,53.72
2023-05-14T21:55:43.509Z,53.65
2023-05-14T21:58:11.582Z,53.65
2023-05-14T22:00:39.600Z,53.56
2023-05-14T22:03:07.727Z,53.49
2023-05-14T22:05:35.964Z,53.41
2023-05-14T22:08:04.044Z,53.38
2023-05-14T22:10:32.360Z,53.34
2023-05-14T22:13:00.375Z,53.28
2023-05-14T22:15:28.573Z,53.11
2023-05-14T22:17:57.025Z,53.12
2023-05-14T22:20:25.044Z,52.98
2023-05-14T22:22:52.963Z,52.95
2023-05-14T22:25:20.953Z,52.95
2023-05-14T22:27:49.922Z,52.94
2023-05-14T22:30:17.821Z,52.85
2023-05-14T22:32:45.833Z,52.81
2023-05-14T22:35:14.786Z,52.79
2023-05-14T22:37:43.241Z,52.74
2023-05-14T22:40:13.524Z,52.69
2023-05-14T22:42:41.533Z,52.63
2023-05-14T22:45:10.545Z,52.59
2023-05-14T22:47:41.907Z,52.41
2023-05-14T22:50:11.673Z,52.48
2023-05-14T22:52:40.272Z,52.42
2023-05-14T22:55:09.239Z,52.42
2023-05-14T22:57:37.671Z,52.41
2023-05-14T23:00:08.958Z,52.34
2023-05-14T23:02:36.913Z,52.33
2023-05-14T23:05:06.330Z,52.26
2023-05-14T23:07:34.998Z,52.33
2023-05-14T23:10:03.040Z,52.31
2023-05-14T23:12:31.288Z,52.30
2023-05-14T23:14:59.306Z,52.21
2023-05-14T23:17:27.796Z,52.29
2023-05-14T23:19:56.043Z,52.23
2023-05-14T23:22:24.066Z,52.33
2023-05-14T23:24:51.995Z,52.30
2023-05-14T23:27:20.247Z,52.29
2023-05-14T23:29:48.321Z,52.40
2023-05-14T23:32:16.505Z,52.33
2023-05-14T23:34:44.559Z,52.30
2023-05-14T23:37:14.454Z,52.35
2023-05-14T23:39:42.528Z,52.47
2023-05-14T23:42:10.402Z,52.51
2023-05-14T23:44:38.331Z,52.34
2023-05-14T23:47:08.856Z,52.53
2023-05-14T23:49:37.014Z,52.68
2023-05-14T23:52:05.420Z,52.59
2023-05-14T23:54:33.385Z,52.70
2023-05-14T23:57:03.450Z,52.58
2023-05-14T23:59:31.559Z,52.85
